Hayes River, Alaska
Current Conditions -  °F | °C
As of 6:53 AM on Sunday 25 Jan 2015 (Local Time) from PATK Reporting Station
Overcast Overcast  
Wind Chill: -1°   Ceiling: 7000
Heat Index: -1°   Visibility: 10mi
Dew Point: -6°   Wind: 0mph
Humidity: 79%   Direction: NA
Pressure: 29.59"   Gusts: NA
Location:  61.98°N, 152.08°W
Report Text: PATK 251553Z AUTO 00000KT 10SM OVC070 M18/M21 A2959 RMK AO2 SLP030 T11831211 TSNO $
Loading
Personal Weather Stations






























Interactive Weather Map New forecast layout! Learn more

10-Day Weather Forecast

Advertisements
Track Severe Weather on mobile